x

Cape Edgecumbe - 25nm Ssw Of Cape Edgecumbe, Ak (46084) Weather Station

2:50pm - Sun 30th Aug 2015 All times are AKDT. -8 hours from GMT.

  • Wind
    31mph, 40mph gusts
  • Sea Temp 56°f
  • Air Temp 54°f
  • Sea Pressure 982mb
  • Cape Edgecumbe - 25nm Ssw Of Cape Edgecumbe, Ak
  • Cape Edgecumbe - 25nm Ssw Of Cape Edgecumbe, Ak

More Historic Weather Station data

Upgrade to MSW Pro to gain access to the past 30 days of data for over 8000 Wavebouys and Weather Stations around the globe.

Join Pro

Comparision Forecast

View Surf forecast
   
Sun 08/30 2:50pm  -   -   -  31 40 mph 982mb 56f 54f
1:50pm 7.5ft 6s 5s 27 36 mph 981.7mb 56f 53f
12:50pm 7ft 9s 6s 22 27 mph 981.5mb 56f 54f
11:50am 6ft 10s 6s 16 18 mph 981.4mb 56f 54f
10:50am 6ft 9s 6s 9 11 mph 981.2mb 57f 53f
9:50am  -   -   -  2
mph
981.3mb 57f 51f
8:50am  -   -   -  4 7 mph 982mb 57f 52f
7:50am  -   -   -  11 13 mph 983mb 57f 52f
5:50am  -   -   -  13 18 mph 984.8mb 56f 54f
4:50am 5.5ft 15s 6s 18 20 mph 985.3mb 56f 56f
3:50am 6ft 9s 6s 16 18 mph 985.8mb 56f 56f
2:50am  -   -   -  9 11 mph 986.2mb 57f 55f
1:50am 7ft 9s 6s 16 22 mph 986.8mb 57f 55f
12:50am  -   -   -  22 29 mph 986.9mb 57f 56f
Sat 08/29 11:50pm  -   -   -  18 22 mph 987.7mb 57f 56f
10:50pm 7ft 9s 7s 16 20 mph 988.5mb 57f 56f
9:50pm 7ft 10s 7s 16 18 mph 989.2mb 57f 56f
8:50pm  -   -   -  11 13 mph - 57f 56f
7:50pm  -   -   -  11 13 mph 990mb 57f 56f
6:50pm 7.5ft 10s 8s 11 13 mph 990.2mb 57f 56f
5:50pm 6.5ft 10s 7s 7
mph
990.6mb 57f 56f
4:50pm  -   -   -  7 9 mph 990.7mb 57f 57f
2:50pm  -   -   -  7
mph
- - 57f
1:50pm  -   -   -  7 9 mph 990.7mb 57f 56f
12:50pm 7.5ft 11s 7s 9 11 mph 990.8mb 57f 56f
11:50am 7.5ft 11s 7s 9 11 mph 990.6mb 57f 56f
10:50am 8.5ft 10s 7s 11 13 mph 990.9mb 57f 56f
9:50am  -   -   -  9 11 mph 991mb 57f 56f
8:50am  -   -   -  11 13 mph 991.8mb 57f 56f
7:50am  -   -   -  13 16 mph 992.1mb 57f 55f
5:50am  -   -   -  13 18 mph 992.6mb 57f 56f
4:50am  -   -   -  20 25 mph - 56f 56f
3:50am  -   -   -  20 22 mph 992.9mb 56f 56f
2:50am  -   -   -  18 20 mph 993.2mb 56f 56f
1:50am  -   -   -  18 22 mph 993.2mb 56f 56f
12:50am  -   -   -  18 22 mph 993.4mb 56f 56f
Fri 08/28 11:50pm  -   -   -  18 22 mph 993.3mb 56f 56f
10:50pm  -   -   -  18
mph
993.4mb - 57f
9:50pm  -   -   -  18 20 mph 993.4mb 56f 57f
8:50pm  -   -   -  18
mph
- - -
7:50pm  -   -   -  16 18 mph 993.5mb 57f 57f
6:50pm  -   -   -  18 20 mph 993.1mb 57f 57f
5:50pm  -   -   -  16 20 mph 992.9mb 57f 58f
4:50pm 6.5ft 8s 6s 18 20 mph 992.5mb 57f 57f
3:50pm 7ft 9s 6s 18 20 mph 992.1mb 57f 57f
2:50pm  -   -   -  18 22 mph 991.7mb 57f 56f
1:50pm 8ft 8s 7s 13 18 mph 991.3mb 57f 57f
12:50pm  -   -   -  9 11 mph 990.8mb 58f 57f
11:50am  -   -   -  9
mph
990.6mb 58f 56f
10:50am 7ft 8s 7s 7
mph
990.5mb 58f 56f
9:50am 6.5ft 8s 7s  -  2 mph 990.5mb 58f 56f
8:50am  -   -   -   -  mph 990.8mb 57f 56f
7:50am  -   -   -   -  mph 991.1mb 57f 56f
6:50am 6.5ft 8s 6s  -  mph 991.8mb 57f 56f
5:50am 6ft 7s 6s  -  2 mph 992.3mb 56f 56f
4:50am 6.5ft 8s 6s 2 4 mph 993.1mb 56f 57f
3:50am  -   -   -  9 11 mph 994mb 57f 57f
2:50am 7ft 7s 6s 9 11 mph 994.9mb 57f 57f
1:50am  -   -   -  13 16 mph 995.8mb 58f 56f
12:50am  -   -   -  16 18 mph 996.7mb 58f 56f
Thu 08/27 11:50pm  -   -   -  13 18 mph 997.7mb 58f 58f
10:50pm  -   -   -  16 20 mph 998.8mb 58f 58f
9:50pm 8ft 8s 6s 18 22 mph 999.6mb 58f 58f
7:50pm  -   -   -  20 25 mph 1001mb 58f 58f
6:50pm 7.5ft 7s 6s 22 27 mph 1001.5mb 58f 58f
5:50pm  -   -   -  25 29 mph 1002.6mb 58f 57f
4:50pm  -   -   -  27 31 mph 1003.3mb 58f 58f
3:50pm  -   -   -  29 36 mph 1004.1mb 58f 56f
2:50pm 5ft 5s 4s 22 29 mph 1006mb 57f 57f
1:50pm 5.5ft 5s 4s 25 29 mph 1007.1mb 57f 56f
12:50pm  -   -   -  27 31 mph 1007.8mb 58f 56f
11:50am  -   -   -  20 25 mph 1009.1mb 58f 56f
10:50am  -   -   -  20 27 mph 1010.3mb 58f 57f
9:50am 3.5ft 14s 5s 16 18 mph 1011mb 58f 57f
8:50am  -   -   -  16 18 mph 1012mb 58f 57f
7:50am 3.5ft 14s 7s 13 16 mph 1012.7mb 58f 57f
6:50am 3.5ft 14s 8s 11 13 mph 1013.3mb 58f 57f
5:50am  -   -   -  11 13 mph 1014mb 58f 57f
4:50am  -   -   -  7
mph
1014.5mb 58f 57f
3:50am  -   -   -  7
mph
1015.3mb 58f 57f
2:50am  -   -   -  9
mph
1016.1mb 58f 57f
1:50am 3ft 15s 6s 4
mph
- - 57f
12:50am 3.5ft 15s 6s 4 7 mph 1016.6mb 58f 57f